Time;durP1;ratioP1;P1;durP2;ratioP2;P2;SDS_P1;SDS_P2;PMS_P1;PMS_P2;Temp;Humidity;BMP_temperature;BMP_pressure;BME280_temperature;BME280_humidity;BME280_pressure;Samples;Min_cycle;Max_cycle;Signal;HPM_P1;HPM_P2
2023/03/15 00:01:17;;;;;;;;;;;22.10;78.70;;;;;;5115659;28;19915;-56
2023/03/15 00:03:43;;;;;;;;;;;22.10;78.30;;;;;;5115281;28;19911;-57
2023/03/15 00:06:08;;;;;;;;;;;22.30;78.30;;;;;;5115808;28;19916;-58
2023/03/15 00:08:35;;;;;;;;;;;22.20;78.10;;;;;;5115689;28;19918;-57
2023/03/15 00:11:00;;;;;;;;;;;22.20;78.40;;;;;;5115682;28;19908;-57
2023/03/15 00:13:26;;;;;;;;;;;22.20;78.50;;;;;;5115567;28;19915;-58
2023/03/15 00:15:54;;;;;;;;;;;22.10;78.50;;;;;;5115262;28;20359;-57
2023/03/15 00:18:20;;;;;;;;;;;22.00;78.70;;;;;;5115563;28;19973;-57
2023/03/15 00:20:46;;;;;;;;;;;21.90;79.00;;;;;;5115553;28;19998;-57
2023/03/15 00:23:12;;;;;;;;;;;21.80;79.00;;;;;;5115519;28;19907;-57
2023/03/15 00:25:38;;;;;;;;;;;21.70;79.00;;;;;;5115557;28;19956;-57
2023/03/15 00:28:03;;;;;;;;;;;21.60;80.20;;;;;;5115435;28;19911;-57
2023/03/15 00:30:29;;;;;;;;;;;21.60;79.70;;;;;;5115674;28;20180;-58
2023/03/15 00:32:54;;;;;;;;;;;21.50;79.90;;;;;;5115659;28;19938;-58
2023/03/15 00:35:21;;;;;;;;;;;21.50;79.80;;;;;;5115335;28;19908;-57
2023/03/15 00:37:46;;;;;;;;;;;21.60;79.70;;;;;;5114969;28;19912;-57
2023/03/15 00:40:12;;;;;;;;;;;21.70;79.70;;;;;;5115046;28;19912;-57
2023/03/15 00:42:38;;;;;;;;;;;21.90;79.40;;;;;;5114882;28;19911;-57
2023/03/15 00:45:04;;;;;;;;;;;22.00;79.10;;;;;;5115032;28;20307;-57
2023/03/15 00:47:30;;;;;;;;;;;22.10;78.70;;;;;;5115365;28;20393;-58
2023/03/15 00:49:55;;;;;;;;;;;22.20;78.40;;;;;;5114760;28;19950;-57
2023/03/15 00:52:21;;;;;;;;;;;22.20;78.40;;;;;;5115009;28;19922;-57
2023/03/15 00:54:50;;;;;;;;;;;22.30;78.50;;;;;;5115009;28;19915;-57
2023/03/15 00:57:16;;;;;;;;;;;22.20;78.60;;;;;;5114581;28;19907;-58
2023/03/15 00:59:43;;;;;;;;;;;22.20;78.60;;;;;;5114638;28;19915;-54
2023/03/15 01:02:09;;;;;;;;;;;22.10;78.90;;;;;;5114748;28;20071;-57
2023/03/15 01:04:35;;;;;;;;;;;22.10;79.30;;;;;;5114437;28;20025;-57
2023/03/15 01:07:00;;;;;;;;;;;22.00;79.30;;;;;;5114722;28;19915;-57
2023/03/15 01:09:25;;;;;;;;;;;21.80;75.30;;;;;;5114741;28;19961;-55
2023/03/15 01:11:51;;;;;;;;;;;21.00;68.00;;;;;;5114707;28;20347;-57
2023/03/15 01:14:17;;;;;;;;;;;20.40;66.20;;;;;;5113859;28;20289;-56
2023/03/15 01:16:43;;;;;;;;;;;20.20;70.70;;;;;;5114462;28;19930;-57
2023/03/15 01:19:09;;;;;;;;;;;20.30;72.90;;;;;;5114629;28;20014;-56
2023/03/15 01:21:34;;;;;;;;;;;20.40;75.00;;;;;;5114312;28;19970;-57
2023/03/15 01:24:00;;;;;;;;;;;20.50;75.80;;;;;;5114472;28;19998;-56
2023/03/15 01:26:25;;;;;;;;;;;20.60;76.00;;;;;;5114251;28;19915;-58
2023/03/15 01:28:51;;;;;;;;;;;20.80;76.10;;;;;;5114537;28;19915;-56
2023/03/15 01:31:18;;;;;;;;;;;20.90;76.50;;;;;;5114592;28;19930;-57
2023/03/15 01:33:43;;;;;;;;;;;21.00;76.40;;;;;;5114445;28;20045;-57
2023/03/15 01:36:10;;;;;;;;;;;21.10;76.60;;;;;;5114096;28;19947;-57
2023/03/15 01:38:35;;;;;;;;;;;21.30;76.20;;;;;;5114436;28;20366;-58
2023/03/15 01:41:01;;;;;;;;;;;21.50;76.30;;;;;;5114413;28;19941;-57
2023/03/15 01:43:27;;;;;;;;;;;21.60;76.00;;;;;;5114717;28;19966;-57
2023/03/15 01:46:11;;;;;;;;;;;21.70;75.80;;;;;;5114249;28;19915;-57
2023/03/15 01:48:43;;;;;;;;;;;21.80;76.00;;;;;;5114297;28;19912;-58
2023/03/15 01:51:15;;;;;;;;;;;21.80;76.00;;;;;;5114249;28;19934;-58
2023/03/15 01:53:41;;;;;;;;;;;21.90;75.60;;;;;;5114234;28;19915;-57
2023/03/15 01:56:06;;;;;;;;;;;22.00;75.80;;;;;;5114271;28;19914;-57
2023/03/15 01:58:33;;;;;;;;;;;22.00;75.50;;;;;;5113987;28;20307;-57
2023/03/15 02:01:00;;;;;;;;;;;22.00;75.70;;;;;;5113885;28;20289;-58
2023/03/15 02:03:30;;;;;;;;;;;22.00;75.90;;;;;;5114226;28;19920;-58
2023/03/15 02:05:57;;;;;;;;;;;22.00;75.80;;;;;;5114163;28;20271;-57
2023/03/15 02:08:28;;;;;;;;;;;22.00;76.00;;;;;;5114216;28;19911;-55
2023/03/15 02:10:55;;;;;;;;;;;21.90;76.00;;;;;;5114249;28;19931;-57
2023/03/15 02:13:22;;;;;;;;;;;21.80;76.20;;;;;;5114055;28;19908;-57
2023/03/15 02:15:48;;;;;;;;;;;21.80;76.40;;;;;;5113994;28;19911;-57
2023/03/15 02:18:14;;;;;;;;;;;21.70;76.60;;;;;;5114096;28;20382;-58
2023/03/15 02:20:46;;;;;;;;;;;21.60;76.80;;;;;;5113746;28;20004;-58
2023/03/15 02:23:13;;;;;;;;;;;21.60;77.00;;;;;;5114090;28;19908;-57
2023/03/15 02:25:57;;;;;;;;;;;21.60;77.10;;;;;;5113975;28;20370;-58
2023/03/15 02:28:23;;;;;;;;;;;21.70;77.00;;;;;;5117453;28;19962;-56
2023/03/15 02:30:49;;;;;;;;;;;21.80;76.90;;;;;;5117742;28;19911;-58
2023/03/15 02:33:15;;;;;;;;;;;21.90;76.60;;;;;;5117363;28;20247;-58
2023/03/15 02:35:40;;;;;;;;;;;22.00;76.20;;;;;;5117652;28;19914;-57
2023/03/15 02:38:05;;;;;;;;;;;22.10;76.00;;;;;;5117597;28;19907;-57
2023/03/15 02:40:31;;;;;;;;;;;22.20;76.20;;;;;;5116989;28;19965;-57
2023/03/15 02:42:59;;;;;;;;;;;22.20;76.00;;;;;;5117397;28;19914;-57
2023/03/15 02:45:25;;;;;;;;;;;22.20;75.80;;;;;;5117266;28;20308;-57
2023/03/15 02:47:51;;;;;;;;;;;22.10;76.10;;;;;;5116942;28;19972;-58
2023/03/15 02:50:17;;;;;;;;;;;22.10;76.40;;;;;;5117099;28;19908;-57
2023/03/15 02:52:42;;;;;;;;;;;22.00;76.50;;;;;;5117045;28;20003;-57
2023/03/15 02:55:08;;;;;;;;;;;21.90;76.80;;;;;;5116990;28;19911;-58
2023/03/15 02:57:33;;;;;;;;;;;21.90;76.60;;;;;;5117194;28;20003;-58
2023/03/15 03:00:05;;;;;;;;;;;21.80;76.70;;;;;;5117495;28;20235;-57
2023/03/15 03:02:30;;;;;;;;;;;21.80;77.20;;;;;;5117179;28;19930;-57
2023/03/15 03:04:56;;;;;;;;;;;21.70;76.90;;;;;;5117092;28;20351;-57
2023/03/15 03:07:21;;;;;;;;;;;21.70;77.50;;;;;;5117072;28;19912;-57
2023/03/15 03:09:47;;;;;;;;;;;21.70;77.40;;;;;;5116686;28;19911;-58
2023/03/15 03:12:12;;;;;;;;;;;21.70;77.50;;;;;;5116992;28;19914;-57
2023/03/15 03:14:37;;;;;;;;;;;21.80;77.40;;;;;;5116932;28;19908;-57
2023/03/15 03:17:03;;;;;;;;;;;21.90;77.30;;;;;;5116860;28;20282;-57
2023/03/15 03:19:28;;;;;;;;;;;21.90;77.30;;;;;;5116774;28;19912;-56
2023/03/15 03:21:54;;;;;;;;;;;21.90;76.90;;;;;;5116710;28;19908;-57
2023/03/15 03:24:19;;;;;;;;;;;21.80;77.30;;;;;;5116673;28;20366;-57
2023/03/15 03:26:45;;;;;;;;;;;21.80;77.40;;;;;;5116388;28;19965;-58
2023/03/15 03:29:11;;;;;;;;;;;21.70;77.30;;;;;;5116581;28;19908;-58
2023/03/15 03:31:36;;;;;;;;;;;21.70;77.50;;;;;;5116622;28;19908;-56
2023/03/15 03:34:02;;;;;;;;;;;21.70;77.90;;;;;;5116177;28;20002;-57
2023/03/15 03:36:27;;;;;;;;;;;21.60;78.00;;;;;;5116546;28;19908;-58
2023/03/15 03:38:53;;;;;;;;;;;21.50;78.10;;;;;;5115171;28;19914;-58
2023/03/15 03:41:20;;;;;;;;;;;21.50;78.10;;;;;;5116248;28;20425;-57
2023/03/15 03:43:45;;;;;;;;;;;21.40;77.80;;;;;;5116112;28;20244;-58
2023/03/15 03:46:11;;;;;;;;;;;21.50;78.50;;;;;;5116134;28;19923;-57
2023/03/15 03:48:36;;;;;;;;;;;21.50;78.40;;;;;;5116186;28;19908;-58
2023/03/15 03:51:02;;;;;;;;;;;21.60;78.20;;;;;;5115867;28;19973;-55
2023/03/15 03:53:27;;;;;;;;;;;21.80;77.90;;;;;;5115876;28;19931;-56
2023/03/15 03:55:53;;;;;;;;;;;21.90;77.50;;;;;;5116092;28;19953;-57
2023/03/15 03:58:19;;;;;;;;;;;22.00;77.20;;;;;;5116391;28;19915;-57
2023/03/15 04:00:44;;;;;;;;;;;22.10;77.30;;;;;;5097739;28;19911;-57
2023/03/15 04:03:10;;;;;;;;;;;22.10;77.00;;;;;;5115877;28;20357;-57
2023/03/15 04:05:35;;;;;;;;;;;22.10;77.00;;;;;;5115803;28;19912;-58
2023/03/15 04:08:01;;;;;;;;;;;22.10;76.80;;;;;;5115518;28;19972;-58
2023/03/15 04:10:26;;;;;;;;;;;22.00;76.80;;;;;;5115798;28;19907;-58
2023/03/15 04:12:52;;;;;;;;;;;22.00;77.10;;;;;;5115629;28;19914;-57
2023/03/15 04:15:18;;;;;;;;;;;21.80;77.30;;;;;;5115601;28;19914;-57
2023/03/15 04:17:43;;;;;;;;;;;21.80;77.50;;;;;;5115427;28;19908;-58
2023/03/15 04:20:11;;;;;;;;;;;21.70;77.60;;;;;;5115385;28;19908;-58
2023/03/15 04:22:37;;;;;;;;;;;21.60;77.90;;;;;;5115485;28;19912;-57
2023/03/15 04:25:03;;;;;;;;;;;21.50;78.20;;;;;;5115436;28;20235;-57
2023/03/15 04:27:29;;;;;;;;;;;21.50;78.40;;;;;;5115379;28;19943;-57
2023/03/15 04:29:54;;;;;;;;;;;21.40;78.80;;;;;;5115334;28;19908;-57
2023/03/15 04:32:19;;;;;;;;;;;21.40;78.80;;;;;;5115366;28;19911;-57
2023/03/15 04:34:50;;;;;;;;;;;21.50;78.50;;;;;;5115312;28;19912;-57
2023/03/15 04:37:18;;;;;;;;;;;21.60;78.10;;;;;;5115095;28;19919;-57
2023/03/15 04:39:43;;;;;;;;;;;21.80;77.70;;;;;;5114970;28;19908;-56
2023/03/15 04:42:09;;;;;;;;;;;22.00;77.30;;;;;;5114800;28;19919;-58
2023/03/15 04:44:35;;;;;;;;;;;22.20;77.30;;;;;;5115100;28;20429;-57
2023/03/15 04:47:01;;;;;;;;;;;22.20;76.70;;;;;;5114704;28;19915;-58
2023/03/15 04:49:26;;;;;;;;;;;22.30;76.90;;;;;;5114548;28;19907;-58
2023/03/15 04:51:52;;;;;;;;;;;22.20;76.40;;;;;;5114694;28;19998;-58
2023/03/15 04:54:17;;;;;;;;;;;22.20;77.20;;;;;;5114817;28;19915;-57
2023/03/15 04:56:43;;;;;;;;;;;22.10;77.30;;;;;;5114851;28;20308;-58
2023/03/15 04:59:10;;;;;;;;;;;22.00;77.20;;;;;;5114832;28;19911;-58
2023/03/15 05:01:35;;;;;;;;;;;21.90;77.20;;;;;;5114800;28;19908;-57
2023/03/15 05:04:00;;;;;;;;;;;21.80;77.50;;;;;;5114484;28;19908;-57
2023/03/15 05:06:26;;;;;;;;;;;21.70;77.80;;;;;;5114745;28;20358;-56
2023/03/15 05:08:52;;;;;;;;;;;21.60;78.20;;;;;;5114686;28;20298;-55
2023/03/15 05:11:17;;;;;;;;;;;21.50;78.10;;;;;;5114768;28;19908;-57
2023/03/15 05:13:43;;;;;;;;;;;21.50;78.00;;;;;;5114619;28;19915;-58
2023/03/15 05:16:08;;;;;;;;;;;21.60;78.30;;;;;;5096288;28;19912;-57
2023/03/15 05:18:34;;;;;;;;;;;21.70;78.40;;;;;;5114531;28;19960;-57
2023/03/15 05:20:59;;;;;;;;;;;21.80;77.80;;;;;;5114530;28;19912;-57
2023/03/15 05:23:25;;;;;;;;;;;22.00;77.60;;;;;;5090855;28;20270;-54
2023/03/15 05:25:54;;;;;;;;;;;22.20;77.30;;;;;;5114279;28;20006;-56
2023/03/15 05:28:20;;;;;;;;;;;22.20;74.30;;;;;;5111825;28;19965;-56
2023/03/15 05:30:46;;;;;;;;;;;22.30;76.10;;;;;;5113616;28;19911;-57
2023/03/15 05:33:12;;;;;;;;;;;22.20;76.40;;;;;;5113212;28;19908;-55
2023/03/15 05:35:38;;;;;;;;;;;22.10;76.90;;;;;;5114225;28;19920;-56
2023/03/15 05:38:04;;;;;;;;;;;22.00;77.10;;;;;;5113879;28;20012;-57
2023/03/15 05:40:31;;;;;;;;;;;21.90;77.60;;;;;;5114112;28;19920;-57
2023/03/15 05:42:56;;;;;;;;;;;21.80;77.40;;;;;;5113872;28;19908;-57
2023/03/15 05:45:22;;;;;;;;;;;21.70;77.50;;;;;;5095779;28;20265;-56
2023/03/15 05:47:47;;;;;;;;;;;21.60;78.00;;;;;;5105546;28;19923;-56
2023/03/15 05:50:12;;;;;;;;;;;21.50;77.10;;;;;;5110797;28;19972;-50
2023/03/15 05:52:38;;;;;;;;;;;21.50;77.80;;;;;;5113909;28;20370;-57
2023/03/15 05:55:04;;;;;;;;;;;21.40;78.50;;;;;;5111603;28;20370;-57
2023/03/15 05:57:30;;;;;;;;;;;21.40;78.70;;;;;;5094659;28;19912;-57
2023/03/15 05:59:55;;;;;;;;;;;21.50;78.60;;;;;;5109357;28;19919;-55
2023/03/15 06:02:21;;;;;;;;;;;21.60;77.60;;;;;;5114545;28;19919;-52
2023/03/15 06:04:46;;;;;;;;;;;21.90;77.80;;;;;;5117667;28;19951;-56
2023/03/15 06:07:12;;;;;;;;;;;22.10;77.40;;;;;;5116610;28;19937;-55
2023/03/15 06:09:37;;;;;;;;;;;22.30;77.30;;;;;;5117298;28;19908;-56
2023/03/15 06:12:03;;;;;;;;;;;22.40;76.80;;;;;;5114817;28;19984;-57
2023/03/15 06:14:29;;;;;;;;;;;22.40;76.70;;;;;;5116763;28;19911;-54
2023/03/15 06:16:54;;;;;;;;;;;22.30;76.70;;;;;;5116084;27;19911;-58
2023/03/15 06:19:20;;;;;;;;;;;22.20;77.70;;;;;;5124098;27;20251;-61
2023/03/15 06:21:46;;;;;;;;;;;22.10;77.60;;;;;;5130210;27;19930;-62
2023/03/15 06:24:12;;;;;;;;;;;22.00;77.80;;;;;;5134956;27;20357;-61
2023/03/15 06:26:37;;;;;;;;;;;21.80;78.20;;;;;;5135510;27;19934;-58
2023/03/15 06:29:03;;;;;;;;;;;21.80;78.80;;;;;;5138185;27;19952;-55
2023/03/15 06:31:28;;;;;;;;;;;21.60;78.80;;;;;;5133713;27;20014;-61
2023/03/15 06:33:54;;;;;;;;;;;21.60;79.30;;;;;;5124422;27;19928;-57
2023/03/15 06:36:20;;;;;;;;;;;21.50;79.50;;;;;;5135237;27;20271;-56
2023/03/15 06:38:45;;;;;;;;;;;21.50;80.00;;;;;;5117137;28;20389;-59
2023/03/15 06:41:11;;;;;;;;;;;21.40;80.10;;;;;;5117270;28;19920;-56
2023/03/15 06:43:37;;;;;;;;;;;21.50;80.30;;;;;;5117402;28;19914;-60
2023/03/15 06:46:02;;;;;;;;;;;21.50;80.20;;;;;;5117295;28;19960;-60
2023/03/15 06:48:28;;;;;;;;;;;21.70;79.90;;;;;;5117032;28;20143;-58
2023/03/15 06:50:54;;;;;;;;;;;21.90;79.10;;;;;;5123363;27;19908;-63
2023/03/15 06:53:19;;;;;;;;;;;22.10;78.80;;;;;;5137411;27;20002;-63
2023/03/15 06:55:46;;;;;;;;;;;22.30;78.70;;;;;;5137539;27;19933;-64
2023/03/15 06:58:11;;;;;;;;;;;22.30;78.50;;;;;;5137454;27;19908;-63
2023/03/15 07:00:37;;;;;;;;;;;22.20;78.50;;;;;;5137566;27;19959;-61
2023/03/15 07:03:03;;;;;;;;;;;22.20;78.80;;;;;;5137224;27;19907;-62
2023/03/15 07:05:29;;;;;;;;;;;22.00;79.00;;;;;;5132952;27;19923;-63
2023/03/15 07:07:54;;;;;;;;;;;22.00;79.20;;;;;;5116830;28;19911;-62
2023/03/15 07:10:20;;;;;;;;;;;21.80;79.50;;;;;;5114926;28;19916;-63
2023/03/15 07:12:45;;;;;;;;;;;21.80;79.50;;;;;;5112872;28;19911;-63
2023/03/15 07:15:11;;;;;;;;;;;21.70;79.90;;;;;;5093869;28;19912;-62
2023/03/15 07:17:37;;;;;;;;;;;21.60;80.00;;;;;;5114620;28;20358;-59
2023/03/15 07:20:04;;;;;;;;;;;21.50;80.00;;;;;;5115641;28;19912;-59
2023/03/15 07:22:31;;;;;;;;;;;21.50;80.60;;;;;;5114134;28;20286;-60
2023/03/15 07:24:56;;;;;;;;;;;21.40;80.70;;;;;;5111418;27;19916;-58
2023/03/15 07:27:21;;;;;;;;;;;21.40;81.00;;;;;;5115630;28;19916;-58
2023/03/15 07:29:47;;;;;;;;;;;21.40;81.10;;;;;;5114098;28;20290;-59
2023/03/15 07:32:13;;;;;;;;;;;21.50;80.90;;;;;;5115284;28;19916;-57
2023/03/15 07:34:38;;;;;;;;;;;21.70;80.60;;;;;;5113759;28;19916;-61
2023/03/15 07:37:04;;;;;;;;;;;21.90;79.90;;;;;;5115901;28;19914;-58
2023/03/15 07:39:31;;;;;;;;;;;22.20;79.10;;;;;;5115248;28;20322;-63
2023/03/15 07:41:57;;;;;;;;;;;22.40;78.90;;;;;;5114025;28;19927;-59
2023/03/15 07:44:23;;;;;;;;;;;22.40;78.70;;;;;;5114822;28;19912;-58
2023/03/15 07:46:49;;;;;;;;;;;22.40;78.60;;;;;;5114819;28;19927;-60
2023/03/15 07:49:14;;;;;;;;;;;22.40;78.40;;;;;;5113449;28;20367;-61
2023/03/15 07:51:41;;;;;;;;;;;22.30;78.80;;;;;;5116440;28;19915;-58
2023/03/15 07:54:06;;;;;;;;;;;22.30;78.90;;;;;;5114392;28;19912;-59
2023/03/15 07:56:32;;;;;;;;;;;22.20;79.20;;;;;;5115768;28;20252;-60
2023/03/15 07:58:57;;;;;;;;;;;22.10;79.40;;;;;;5113763;28;19912;-63
2023/03/15 08:01:23;;;;;;;;;;;22.00;79.40;;;;;;5111734;28;20274;-63
2023/03/15 08:03:48;;;;;;;;;;;21.90;79.60;;;;;;5095953;28;19923;-64
2023/03/15 08:06:14;;;;;;;;;;;21.80;79.90;;;;;;5113728;28;19916;-63
2023/03/15 08:08:39;;;;;;;;;;;21.80;80.20;;;;;;5112346;28;20011;-63
2023/03/15 08:11:05;;;;;;;;;;;21.80;80.30;;;;;;5114643;28;20346;-64
2023/03/15 08:13:30;;;;;;;;;;;21.80;80.20;;;;;;5113312;28;20435;-61
2023/03/15 08:15:56;;;;;;;;;;;21.80;80.20;;;;;;5113994;28;20255;-63
2023/03/15 08:18:21;;;;;;;;;;;21.80;79.90;;;;;;5113865;28;19918;-64
2023/03/15 08:20:47;;;;;;;;;;;21.90;80.10;;;;;;5110022;28;20003;-62
2023/03/15 08:23:15;;;;;;;;;;;21.80;80.00;;;;;;5110608;28;20290;-63
2023/03/15 08:25:41;;;;;;;;;;;21.80;80.50;;;;;;5111902;28;19922;-64
2023/03/15 08:28:07;;;;;;;;;;;21.70;80.50;;;;;;5112901;28;19916;-62
2023/03/15 08:30:32;;;;;;;;;;;21.60;80.70;;;;;;5110006;28;19915;-59
2023/03/15 08:32:58;;;;;;;;;;;21.60;80.80;;;;;;5112881;28;19919;-60
2023/03/15 08:35:23;;;;;;;;;;;21.50;80.90;;;;;;5115166;28;19908;-62
2023/03/15 08:37:51;;;;;;;;;;;21.50;81.10;;;;;;5114125;28;20358;-58
2023/03/15 08:40:22;;;;;;;;;;;21.40;81.30;;;;;;5113891;28;20350;-61
2023/03/15 08:42:48;;;;;;;;;;;21.40;81.40;;;;;;5113861;28;19922;-60
2023/03/15 08:45:14;;;;;;;;;;;21.40;81.40;;;;;;5111553;28;19917;-61
2023/03/15 08:47:40;;;;;;;;;;;21.50;81.30;;;;;;5113908;28;19961;-61
2023/03/15 08:50:13;;;;;;;;;;;21.50;81.00;;;;;;5113275;28;19912;-60
2023/03/15 08:52:39;;;;;;;;;;;21.60;80.90;;;;;;5112602;28;19973;-60
2023/03/15 08:55:04;;;;;;;;;;;21.80;80.40;;;;;;5114631;28;19911;-60
2023/03/15 08:57:32;;;;;;;;;;;21.90;80.00;;;;;;5109969;28;19908;-59
2023/03/15 09:00:06;;;;;;;;;;;22.00;79.80;;;;;;5112438;28;20373;-59
2023/03/15 09:02:32;;;;;;;;;;;22.10;79.60;;;;;;5111465;28;19912;-61
2023/03/15 09:04:58;;;;;;;;;;;22.10;79.50;;;;;;5113741;28;19915;-60
2023/03/15 09:07:23;;;;;;;;;;;22.10;79.60;;;;;;5114777;28;19922;-60
2023/03/15 09:09:48;;;;;;;;;;;22.10;79.50;;;;;;5110576;28;19958;-61
2023/03/15 09:12:15;;;;;;;;;;;22.00;79.50;;;;;;5111926;28;19911;-60
2023/03/15 09:14:40;;;;;;;;;;;22.00;79.50;;;;;;5111911;28;19915;-58
2023/03/15 09:17:06;;;;;;;;;;;21.90;79.90;;;;;;5114455;28;20282;-60
2023/03/15 09:19:31;;;;;;;;;;;21.90;80.00;;;;;;5113778;28;20366;-63
2023/03/15 09:21:57;;;;;;;;;;;21.90;80.10;;;;;;5114285;28;19912;-61
2023/03/15 09:24:22;;;;;;;;;;;21.80;80.40;;;;;;5113531;28;20347;-63
2023/03/15 09:26:48;;;;;;;;;;;21.70;80.50;;;;;;5123406;27;19919;-64
2023/03/15 09:29:13;;;;;;;;;;;21.70;80.80;;;;;;5114092;28;19957;-64
2023/03/15 09:31:39;;;;;;;;;;;21.70;80.90;;;;;;5111969;28;19922;-61
2023/03/15 09:34:05;;;;;;;;;;;21.60;80.80;;;;;;5113460;28;20004;-63
2023/03/15 09:36:31;;;;;;;;;;;21.70;80.00;;;;;;5113675;28;19919;-63
2023/03/15 09:38:56;;;;;;;;;;;21.80;81.00;;;;;;5116088;28;19912;-63
2023/03/15 09:41:31;;;;;;;;;;;21.90;80.10;;;;;;5115375;28;19919;-62
2023/03/15 09:44:00;;;;;;;;;;;22.00;79.40;;;;;;5116128;28;19911;-61
2023/03/15 09:46:27;;;;;;;;;;;22.10;79.40;;;;;;5118403;28;20006;-60
2023/03/15 09:48:53;;;;;;;;;;;22.20;79.40;;;;;;5117008;28;20446;-59
2023/03/15 09:51:27;;;;;;;;;;;22.20;79.20;;;;;;5116657;28;19947;-58
2023/03/15 09:54:05;;;;;;;;;;;22.20;79.30;;;;;;5100208;28;19912;-59
2023/03/15 09:56:35;;;;;;;;;;;22.10;79.00;;;;;;5116575;28;19956;-56
2023/03/15 09:59:01;;;;;;;;;;;22.10;79.20;;;;;;5116970;28;20350;-60
2023/03/15 10:01:31;;;;;;;;;;;22.10;79.20;;;;;;5100157;28;19915;-60
2023/03/15 10:03:56;;;;;;;;;;;22.10;79.20;;;;;;5118242;28;19914;-64
2023/03/15 10:06:26;;;;;;;;;;;22.10;79.40;;;;;;5115704;28;19916;-63
2023/03/15 10:08:54;;;;;;;;;;;22.10;79.30;;;;;;5116608;28;20362;-65
2023/03/15 10:11:34;;;;;;;;;;;22.10;79.30;;;;;;5118017;28;19908;-63
2023/03/15 10:14:26;;;;;;;;;;;22.10;79.70;;;;;;5115423;28;19943;-62
2023/03/15 10:16:51;;;;;;;;;;;22.10;79.70;;;;;;5116656;28;20424;-57
2023/03/15 10:19:26;;;;;;;;;;;22.10;79.80;;;;;;5117940;28;19911;-61
2023/03/15 10:21:55;;;;;;;;;;;22.00;79.80;;;;;;5115565;28;19912;-59
2023/03/15 10:24:24;;;;;;;;;;;22.00;80.10;;;;;;5117242;27;19912;-58
2023/03/15 10:26:50;;;;;;;;;;;22.00;80.10;;;;;;5125618;27;19920;-59
2023/03/15 10:29:18;;;;;;;;;;;22.00;80.30;;;;;;5116517;28;20381;-61
2023/03/15 10:31:48;;;;;;;;;;;22.00;80.30;;;;;;5115507;28;19951;-61
2023/03/15 10:34:14;;;;;;;;;;;22.00;80.20;;;;;;5115986;28;20392;-63
2023/03/15 10:36:48;;;;;;;;;;;22.00;80.50;;;;;;5116513;28;20010;-63
2023/03/15 10:39:14;;;;;;;;;;;22.00;80.10;;;;;;5114799;28;19922;-61
2023/03/15 10:41:39;;;;;;;;;;;22.00;80.20;;;;;;5115103;28;19935;-62
2023/03/15 10:44:06;;;;;;;;;;;22.00;80.20;;;;;;5117367;28;19908;-58
2023/03/15 10:46:34;;;;;;;;;;;22.00;80.50;;;;;;5113488;28;19916;-62
2023/03/15 10:49:07;;;;;;;;;;;22.00;80.50;;;;;;5113941;28;19947;-60
2023/03/15 10:51:36;;;;;;;;;;;22.00;80.60;;;;;;5116224;28;20366;-60
2023/03/15 10:54:21;;;;;;;;;;;21.90;80.70;;;;;;5114824;28;19912;-60
2023/03/15 10:56:46;;;;;;;;;;;21.90;80.80;;;;;;5117004;28;19908;-60
2023/03/15 10:59:17;;;;;;;;;;;21.90;81.00;;;;;;5097207;28;19912;-60
2023/03/15 11:01:46;;;;;;;;;;;21.80;81.10;;;;;;5116548;28;19914;-63
2023/03/15 11:04:20;;;;;;;;;;;21.70;81.10;;;;;;5113827;28;20360;-61
2023/03/15 11:06:48;;;;;;;;;;;21.70;81.50;;;;;;5116998;28;19912;-63
2023/03/15 11:09:18;;;;;;;;;;;21.70;81.30;;;;;;5115919;28;19919;-63
2023/03/15 11:11:49;;;;;;;;;;;21.70;81.30;;;;;;5114095;28;19912;-62
2023/03/15 11:14:16;;;;;;;;;;;21.70;81.40;;;;;;5114255;28;20373;-64
2023/03/15 11:16:45;;;;;;;;;;;21.70;81.20;;;;;;5116553;28;19912;-59
2023/03/15 11:19:14;;;;;;;;;;;21.70;81.10;;;;;;5113139;28;20624;-58
2023/03/15 11:21:41;;;;;;;;;;;21.80;81.00;;;;;;5115253;28;19926;-59
2023/03/15 11:24:14;;;;;;;;;;;21.90;80.80;;;;;;5115819;28;19931;-57
2023/03/15 11:26:41;;;;;;;;;;;22.00;81.10;;;;;;5116554;27;19994;-62
2023/03/15 11:29:13;;;;;;;;;;;22.10;80.40;;;;;;5116204;28;19926;-60
2023/03/15 11:31:39;;;;;;;;;;;22.10;80.30;;;;;;5115279;28;19916;-63
2023/03/15 11:34:19;;;;;;;;;;;22.00;80.30;;;;;;5115351;28;20354;-62
2023/03/15 11:36:49;;;;;;;;;;;22.00;80.20;;;;;;5114115;28;19915;-62
2023/03/15 11:39:18;;;;;;;;;;;22.00;80.40;;;;;;5112853;28;19935;-61
2023/03/15 11:41:51;;;;;;;;;;;21.90;80.50;;;;;;5116334;28;19989;-63
2023/03/15 11:44:35;;;;;;;;;;;21.80;80.90;;;;;;5114901;28;19912;-61
2023/03/15 11:47:04;;;;;;;;;;;21.80;81.00;;;;;;5115959;28;19912;-56
2023/03/15 11:49:29;;;;;;;;;;;21.70;81.10;;;;;;5114017;28;19969;-56
2023/03/15 11:51:56;;;;;;;;;;;21.60;81.30;;;;;;5113041;28;19912;-58
2023/03/15 11:54:21;;;;;;;;;;;21.60;81.60;;;;;;5097809;28;20334;-56
2023/03/15 11:56:50;;;;;;;;;;;21.60;81.60;;;;;;5113241;28;19922;-64
2023/03/15 11:59:17;;;;;;;;;;;21.60;81.70;;;;;;5114874;27;19912;-64
2023/03/15 12:01:50;;;;;;;;;;;21.70;81.50;;;;;;5109677;28;19918;-62
2023/03/15 12:04:26;;;;;;;;;;;21.80;81.30;;;;;;5110748;28;19934;-64
2023/03/15 12:06:53;;;;;;;;;;;21.90;81.60;;;;;;5112356;28;19917;-61
2023/03/15 12:09:31;;;;;;;;;;;22.00;80.50;;;;;;5113829;28;20010;-60
2023/03/15 12:11:57;;;;;;;;;;;22.10;80.10;;;;;;5109974;28;19950;-57
2023/03/15 12:14:30;;;;;;;;;;;22.10;80.00;;;;;;5111675;28;19924;-55
2023/03/15 12:17:15;;;;;;;;;;;22.10;80.00;;;;;;5113865;28;19912;-65
2023/03/15 12:19:41;;;;;;;;;;;22.10;80.00;;;;;;5111355;28;20358;-64
2023/03/15 12:22:13;;;;;;;;;;;22.00;80.00;;;;;;5111334;28;19918;-65
2023/03/15 12:24:39;;;;;;;;;;;21.90;80.20;;;;;;5109862;28;19965;-64
2023/03/15 12:27:18;;;;;;;;;;;21.90;80.30;;;;;;5095046;28;20343;-59
2023/03/15 12:29:44;;;;;;;;;;;21.80;80.30;;;;;;5111157;28;20266;-60
2023/03/15 12:32:14;;;;;;;;;;;21.70;80.50;;;;;;5108279;28;19928;-64
2023/03/15 12:35:12;;;;;;;;;;;21.70;79.80;;;;;;5110635;28;19916;-60
2023/03/15 12:37:42;;;;;;;;;;;21.70;80.90;;;;;;5071001;28;20007;-65
2023/03/15 12:40:21;;;;;;;;;;;21.60;80.90;;;;;;5111111;28;19912;-66
2023/03/15 12:42:46;;;;;;;;;;;21.60;81.00;;;;;;5114865;28;19918;-65
2023/03/15 12:45:15;;;;;;;;;;;21.70;81.00;;;;;;5113695;28;19916;-66
2023/03/15 12:47:49;;;;;;;;;;;21.90;80.80;;;;;;5111554;28;21359;-62
2023/03/15 12:50:33;;;;;;;;;;;22.10;80.10;;;;;;5114176;28;19992;-66
2023/03/15 12:52:59;;;;;;;;;;;22.40;79.20;;;;;;5111018;28;19912;-65
2023/03/15 12:55:27;;;;;;;;;;;22.70;78.60;;;;;;5112926;28;20281;-66
2023/03/15 12:57:56;;;;;;;;;;;22.70;78.30;;;;;;5113421;28;19918;-65
2023/03/15 13:00:26;;;;;;;;;;;22.70;78.40;;;;;;5112093;28;19912;-59
2023/03/15 13:02:56;;;;;;;;;;;22.60;78.50;;;;;;5110821;28;19940;-64
2023/03/15 13:05:23;;;;;;;;;;;22.60;78.80;;;;;;5113371;28;19923;-64
2023/03/15 13:08:08;;;;;;;;;;;22.40;79.00;;;;;;5114372;28;20074;-65
2023/03/15 13:10:38;;;;;;;;;;;22.30;79.30;;;;;;5112361;28;20414;-63
2023/03/15 13:13:13;;;;;;;;;;;22.20;79.50;;;;;;5112284;28;20394;-63
2023/03/15 13:15:57;;;;;;;;;;;22.10;80.00;;;;;;5112792;28;19994;-64
2023/03/15 13:18:23;;;;;;;;;;;22.00;80.10;;;;;;5114556;28;19958;-65
2023/03/15 13:21:07;;;;;;;;;;;21.90;80.40;;;;;;5113928;28;20374;-66
2023/03/15 13:23:33;;;;;;;;;;;21.80;81.00;;;;;;5114522;28;19915;-64
2023/03/15 13:26:07;;;;;;;;;;;21.80;80.70;;;;;;5117787;27;20301;-65
2023/03/15 13:28:47;;;;;;;;;;;21.80;80.80;;;;;;5114435;28;19964;-67
2023/03/15 13:31:22;;;;;;;;;;;21.80;80.80;;;;;;5110401;28;19918;-64
2023/03/15 13:33:49;;;;;;;;;;;22.00;80.60;;;;;;5109138;28;19923;-64
2023/03/15 13:36:22;;;;;;;;;;;22.30;79.20;;;;;;5112544;28;19912;-64
2023/03/15 13:38:49;;;;;;;;;;;22.50;79.20;;;;;;5112664;28;19919;-64
2023/03/15 13:41:25;;;;;;;;;;;22.60;78.70;;;;;;5099398;28;19920;-58
2023/03/15 13:43:52;;;;;;;;;;;22.70;78.20;;;;;;5112511;28;20060;-59
2023/03/15 13:46:21;;;;;;;;;;;22.60;78.80;;;;;;5110772;28;19938;-57
2023/03/15 13:48:47;;;;;;;;;;;22.50;78.90;;;;;;5113682;28;19956;-58
2023/03/15 13:51:29;;;;;;;;;;;22.40;79.30;;;;;;5110436;28;19919;-58
2023/03/15 13:54:04;;;;;;;;;;;22.30;79.40;;;;;;5112987;28;19912;-58
2023/03/15 13:56:32;;;;;;;;;;;22.20;79.80;;;;;;5107908;28;19961;-63
2023/03/15 13:58:58;;;;;;;;;;;22.00;80.00;;;;;;5100230;28;19919;-63
2023/03/15 14:01:24;;;;;;;;;;;21.90;80.30;;;;;;5113667;28;19912;-63
2023/03/15 14:03:56;;;;;;;;;;;21.90;80.40;;;;;;5109829;28;19915;-62
2023/03/15 14:06:23;;;;;;;;;;;21.80;80.60;;;;;;5106285;28;20003;-63
2023/03/15 14:08:50;;;;;;;;;;;21.70;80.80;;;;;;5111818;28;19941;-63
2023/03/15 14:11:18;;;;;;;;;;;21.70;80.80;;;;;;5107576;28;19911;-61
2023/03/15 14:13:47;;;;;;;;;;;21.70;81.00;;;;;;5115746;28;19912;-58
2023/03/15 14:16:15;;;;;;;;;;;21.70;81.10;;;;;;5134250;28;20377;-61
2023/03/15 14:18:40;;;;;;;;;;;21.80;80.80;;;;;;5113111;28;19912;-61